logo
Search for airport 
image banner adimage banner adimage banner ad
image banner ad

YWDM - Waddamana

Located in Waddamana, Australia

ICAO - , IATA -

Data provided by Airmate  

General information

Coordinates: S42°7'46" E146°44'45"
Elevation is 1894 feet MSL.
Magnetic variation is 14° East
View others Airports in Tasmania

Operational data

Special qualification required
Current time UTC:
Current local time:
Weather at : YMLT - Launceston ( 76 km )
TAF: TAF YMLT 171731Z 1718/1818 19007KT 9999 MIFG SCT025 FM172300 17009KT 9999 NSW FEW030 PROB30 1720/1723 0300 FZFG
View NOTAMs / SUP AIP / TFR affecting this airport [VIEW]
Communications frequencies: [VIEW]

Runways:

Airport contact information

Address: Waddamana Australia

Satellite view of YWDM